Time;durP1;ratioP1;P1;durP2;ratioP2;P2;SDS_P1;SDS_P2;PMS_P1;PMS_P2;Temp;Humidity;BMP_temperature;BMP_pressure;BME280_temperature;BME280_humidity;BME280_pressure;Samples;Min_cycle;Max_cycle;Signal;HPM_P1;HPM_P2
2022/01/06 00:00:05;;;;;;;18.77;2.75;;;;;;;;;;5116632;27;20388;-82
2022/01/06 00:02:34;;;;;;;16.67;2.72;;;;;;;;;;5099725;27;20118;-81
2022/01/06 00:05:00;;;;;;;20.25;2.55;;;;;;;;;;5134874;27;20039;-81
2022/01/06 00:07:28;;;;;;;15.65;2.42;;;;;;;;;;5116067;27;20151;-81
2022/01/06 00:09:54;;;;;;;18.55;2.55;;;;;;;;;;5116420;27;20127;-81
2022/01/06 00:12:25;;;;;;;19.08;2.50;;;;;;;;;;5134495;27;20498;-80
2022/01/06 00:17:37;;;;;;;20.58;2.90;;;;;;;;;;5116352;27;20043;-81
2022/01/06 00:25:30;;;;;;;20.08;2.50;;;;;;;;;;5115937;27;20062;-80
2022/01/06 00:27:57;;;;;;;16.15;2.42;;;;;;;;;;5098929;27;20050;-81
2022/01/06 00:30:24;;;;;;;21.60;2.85;;;;;;;;;;5116217;27;20047;-80
2022/01/06 00:32:59;;;;;;;17.92;2.60;;;;;;;;;;5133963;27;20046;-82
2022/01/06 00:35:25;;;;;;;15.85;2.85;;;;;;;;;;5116162;27;20042;-81
2022/01/06 00:37:52;;;;;;;24.27;2.83;;;;;;;;;;5116028;27;20082;-82
2022/01/06 00:40:18;;;;;;;18.00;2.58;;;;;;;;;;5134350;27;20034;-80
2022/01/06 00:42:56;;;;;;;21.35;2.72;;;;;;;;;;5134050;27;20083;-82
2022/01/06 00:45:22;;;;;;;21.30;2.72;;;;;;;;;;5134157;27;20039;-81
2022/01/06 00:47:49;;;;;;;25.63;3.05;;;;;;;;;;5134065;27;20035;-81
2022/01/06 00:50:15;;;;;;;20.15;3.38;;;;;;;;;;5134044;27;20486;-82
2022/01/06 00:52:41;;;;;;;22.13;2.60;;;;;;;;;;5115805;27;20046;-81
2022/01/06 00:55:07;;;;;;;25.13;2.53;;;;;;;;;;5115652;27;20043;-82
2022/01/06 00:57:33;;;;;;;20.35;2.67;;;;;;;;;;5133866;27;20046;-82
2022/01/06 00:59:59;;;;;;;18.15;2.58;;;;;;;;;;5133490;27;20035;-82
2022/01/06 01:02:26;;;;;;;24.00;3.00;;;;;;;;;;5098923;27;20031;-82
2022/01/06 01:04:52;;;;;;;22.90;2.55;;;;;;;;;;5115387;27;20123;-81
2022/01/06 01:07:18;;;;;;;18.52;2.33;;;;;;;;;;5133612;27;20059;-82
2022/01/06 01:09:44;;;;;;;18.63;2.67;;;;;;;;;;5133758;27;20083;-81
2022/01/06 01:12:10;;;;;;;18.17;2.70;;;;;;;;;;5115534;27;20131;-82
2022/01/06 01:14:56;;;;;;;20.92;2.30;;;;;;;;;;5133332;27;20126;-82
2022/01/06 01:17:25;;;;;;;24.75;2.60;;;;;;;;;;5133614;27;20039;-82
2022/01/06 01:19:51;;;;;;;20.77;2.80;;;;;;;;;;5115500;27;20050;-81
2022/01/06 01:22:18;;;;;;;20.30;2.40;;;;;;;;;;5115555;28;20271;-81
2022/01/06 01:24:44;;;;;;;16.83;2.47;;;;;;;;;;5133537;28;20365;-81
2022/01/06 01:27:11;;;;;;;18.88;2.42;;;;;;;;;;5098067;28;20446;-82
2022/01/06 01:29:45;;;;;;;17.08;2.40;;;;;;;;;;5133499;28;20042;-82
2022/01/06 01:32:12;;;;;;;19.65;2.58;;;;;;;;;;5133233;28;20043;-82
2022/01/06 01:34:40;;;;;;;21.08;2.72;;;;;;;;;;5114843;28;20475;-82
2022/01/06 01:37:06;;;;;;;16.98;2.33;;;;;;;;;;5133536;28;20129;-81
2022/01/06 01:39:32;;;;;;;17.05;2.03;;;;;;;;;;5133243;28;20039;-81
2022/01/06 01:41:58;;;;;;;16.67;2.50;;;;;;;;;;5115074;28;20474;-81
2022/01/06 01:44:24;;;;;;;18.73;2.17;;;;;;;;;;5133376;28;20047;-82
2022/01/06 01:47:03;;;;;;;17.77;2.42;;;;;;;;;;5115267;28;20043;-82
2022/01/06 01:49:43;;;;;;;18.38;2.63;;;;;;;;;;5117048;27;20046;-81
2022/01/06 01:52:09;;;;;;;20.50;2.27;;;;;;;;;;5137202;27;20039;-82
2022/01/06 01:54:36;;;;;;;16.23;2.63;;;;;;;;;;5119348;27;20284;-81
2022/01/06 01:57:02;;;;;;;17.42;1.98;;;;;;;;;;5137235;27;20061;-82
2022/01/06 01:59:28;;;;;;;19.77;2.55;;;;;;;;;;5118895;27;20354;-82
2022/01/06 02:01:56;;;;;;;23.67;2.20;;;;;;;;;;5137231;27;20092;-82
2022/01/06 02:04:23;;;;;;;18.52;2.15;;;;;;;;;;5118786;27;20484;-82
2022/01/06 02:06:49;;;;;;;22.65;2.40;;;;;;;;;;5136900;27;20396;-81
2022/01/06 02:09:15;;;;;;;23.17;3.15;;;;;;;;;;5102143;27;20129;-81
2022/01/06 02:11:47;;;;;;;20.85;2.30;;;;;;;;;;5136950;27;20042;-81
2022/01/06 02:14:13;;;;;;;18.17;2.50;;;;;;;;;;5137028;27;20468;-82
2022/01/06 02:16:39;;;;;;;20.80;2.40;;;;;;;;;;5137042;27;20042;-82
2022/01/06 02:19:05;;;;;;;18.50;2.13;;;;;;;;;;5118651;27;20495;-82
2022/01/06 02:21:32;;;;;;;17.17;1.92;;;;;;;;;;5136902;27;20085;-82
2022/01/06 02:23:58;;;;;;;19.75;2.70;;;;;;;;;;5136954;27;20089;-82
2022/01/06 02:26:24;;;;;;;16.17;2.30;;;;;;;;;;5118909;27;20043;-82
2022/01/06 02:28:50;;;;;;;14.43;2.63;;;;;;;;;;5101548;27;20058;-82
2022/01/06 02:31:16;;;;;;;15.75;2.10;;;;;;;;;;5118430;27;20043;-82
2022/01/06 02:33:42;;;;;;;16.70;2.08;;;;;;;;;;5117978;27;20043;-81
2022/01/06 02:36:08;;;;;;;17.27;2.65;;;;;;;;;;5136835;27;20070;-81
2022/01/06 02:38:35;;;;;;;16.45;2.10;;;;;;;;;;5136396;27;20527;-81
2022/01/06 02:41:01;;;;;;;15.15;1.95;;;;;;;;;;5136612;27;20376;-81
2022/01/06 02:43:29;;;;;;;15.55;2.25;;;;;;;;;;5118027;27;20078;-81
2022/01/06 02:45:56;;;;;;;15.50;2.17;;;;;;;;;;5117855;27;20046;-81
2022/01/06 02:48:22;;;;;;;15.55;1.98;;;;;;;;;;5136520;27;20038;-81
2022/01/06 02:50:49;;;;;;;13.48;2.15;;;;;;;;;;5136335;27;20058;-81
2022/01/06 02:53:16;;;;;;;19.10;2.00;;;;;;;;;;5136464;27;20074;-81
2022/01/06 02:55:50;;;;;;;13.88;2.10;;;;;;;;;;5136181;27;20122;-81
2022/01/06 02:58:21;;;;;;;15.93;2.00;;;;;;;;;;5136173;27;20392;-81
2022/01/06 03:00:47;;;;;;;11.07;1.85;;;;;;;;;;5135610;27;20042;-82
2022/01/06 03:03:13;;;;;;;20.05;2.40;;;;;;;;;;5117084;27;20039;-81
2022/01/06 03:05:39;;;;;;;21.27;2.20;;;;;;;;;;5136153;27;20047;-82
2022/01/06 03:08:06;;;;;;;17.08;2.20;;;;;;;;;;5135591;27;20058;-80
2022/01/06 03:10:37;;;;;;;13.93;2.30;;;;;;;;;;5135800;27;20101;-81
2022/01/06 03:13:03;;;;;;;15.90;2.27;;;;;;;;;;5117430;27;20107;-81
2022/01/06 03:15:29;;;;;;;15.60;1.95;;;;;;;;;;5135789;27;20043;-81
2022/01/06 03:17:57;;;;;;;16.08;2.05;;;;;;;;;;5135669;27;20118;-80
2022/01/06 03:20:25;;;;;;;16.33;2.13;;;;;;;;;;5135822;27;20187;-81
2022/01/06 03:22:51;;;;;;;14.43;2.22;;;;;;;;;;5117300;27;20396;-81
2022/01/06 03:25:18;;;;;;;20.27;2.72;;;;;;;;;;5117419;27;20037;-81
2022/01/06 03:27:45;;;;;;;19.52;2.35;;;;;;;;;;5117391;27;20093;-80
2022/01/06 03:30:12;;;;;;;19.25;2.33;;;;;;;;;;5135436;27;20041;-81
2022/01/06 03:32:42;;;;;;;14.55;2.13;;;;;;;;;;5117223;27;20129;-80
2022/01/06 03:35:09;;;;;;;20.95;2.45;;;;;;;;;;5135483;27;20563;-81
2022/01/06 03:37:35;;;;;;;15.80;1.90;;;;;;;;;;5135553;27;20122;-81
2022/01/06 03:40:04;;;;;;;19.02;2.50;;;;;;;;;;5135249;27;20118;-81
2022/01/06 03:42:32;;;;;;;18.38;2.40;;;;;;;;;;5135045;27;20069;-81
2022/01/06 03:44:58;;;;;;;16.98;2.55;;;;;;;;;;5116609;27;20444;-81
2022/01/06 03:47:25;;;;;;;19.58;2.63;;;;;;;;;;5117107;27;20055;-81
2022/01/06 03:49:51;;;;;;;17.95;2.17;;;;;;;;;;5135172;27;20071;-81
2022/01/06 03:52:17;;;;;;;17.13;1.98;;;;;;;;;;5116764;27;20122;-80
2022/01/06 03:54:43;;;;;;;19.52;2.25;;;;;;;;;;5116908;27;20126;-81
2022/01/06 03:57:09;;;;;;;15.07;2.30;;;;;;;;;;5134742;27;20130;-81
2022/01/06 03:59:35;;;;;;;17.92;2.22;;;;;;;;;;5135196;27;20043;-81
2022/01/06 04:02:02;;;;;;;19.48;2.30;;;;;;;;;;5099201;27;20539;-80
2022/01/06 04:04:28;;;;;;;18.08;2.25;;;;;;;;;;5134983;27;20058;-82
2022/01/06 04:06:54;;;;;;;16.92;1.92;;;;;;;;;;5134617;27;20094;-81
2022/01/06 04:09:20;;;;;;;13.77;2.03;;;;;;;;;;5134669;27;20085;-81
2022/01/06 04:11:47;;;;;;;19.08;3.60;;;;;;;;;;5116276;27;20122;-80
2022/01/06 04:14:13;;;;;;;23.50;3.80;;;;;;;;;;5134575;27;20035;-81
2022/01/06 04:16:40;;;;;;;24.00;5.65;;;;;;;;;;5134909;27;20039;-80
2022/01/06 04:19:06;;;;;;;27.88;8.35;;;;;;;;;;5134547;27;20467;-81
2022/01/06 04:21:32;;;;;;;25.83;8.60;;;;;;;;;;5116119;27;20121;-80
2022/01/06 04:23:58;;;;;;;29.98;8.95;;;;;;;;;;5134345;27;20495;-80
2022/01/06 04:26:34;;;;;;;21.42;5.18;;;;;;;;;;5134363;27;20130;-79
2022/01/06 04:29:00;;;;;;;17.90;3.47;;;;;;;;;;5116317;27;20479;-79
2022/01/06 04:31:26;;;;;;;17.77;2.75;;;;;;;;;;5099183;27;20074;-80
2022/01/06 04:33:52;;;;;;;17.05;2.60;;;;;;;;;;5115981;27;20074;-80
2022/01/06 04:36:20;;;;;;;17.98;2.40;;;;;;;;;;5116037;27;20535;-79
2022/01/06 04:38:46;;;;;;;18.38;2.42;;;;;;;;;;5134115;27;20054;-79
2022/01/06 04:41:12;;;;;;;22.10;2.90;;;;;;;;;;5115966;27;20046;-79
2022/01/06 04:43:38;;;;;;;17.83;2.45;;;;;;;;;;5134264;27;20122;-79
2022/01/06 04:46:05;;;;;;;16.30;2.42;;;;;;;;;;5134112;27;20045;-79
2022/01/06 04:48:32;;;;;;;22.88;4.65;;;;;;;;;;5134085;27;20103;-81
2022/01/06 04:50:58;;;;;;;20.80;4.75;;;;;;;;;;5133963;27;20058;-80
2022/01/06 04:53:24;;;;;;;20.73;4.65;;;;;;;;;;5115751;27;20043;-80
2022/01/06 04:55:51;;;;;;;19.17;4.72;;;;;;;;;;5115626;27;20035;-80
2022/01/06 04:58:18;;;;;;;20.23;4.60;;;;;;;;;;5133803;27;20391;-80
2022/01/06 05:00:44;;;;;;;26.92;4.88;;;;;;;;;;5134145;27;20039;-80
2022/01/06 05:03:10;;;;;;;16.83;3.80;;;;;;;;;;5133743;27;20126;-80
2022/01/06 05:05:36;;;;;;;17.42;4.35;;;;;;;;;;5133754;27;20043;-80
2022/01/06 05:08:02;;;;;;;17.40;3.80;;;;;;;;;;5133619;27;20409;-80
2022/01/06 05:10:28;;;;;;;23.40;4.03;;;;;;;;;;5115425;27;20490;-80
2022/01/06 05:12:54;;;;;;;17.90;3.63;;;;;;;;;;5115426;28;20046;-80
2022/01/06 05:15:20;;;;;;;19.17;3.17;;;;;;;;;;5133698;27;20540;-80
2022/01/06 05:17:46;;;;;;;14.32;2.95;;;;;;;;;;5133507;27;20039;-80
2022/01/06 05:20:12;;;;;;;18.77;2.92;;;;;;;;;;5133263;27;20043;-79
2022/01/06 05:22:44;;;;;;;14.65;2.50;;;;;;;;;;5133450;27;20122;-80
2022/01/06 05:25:10;;;;;;;;;;;;;;;;;;5133427;27;20047;-80
2022/01/06 05:27:36;;;;;;;16.95;2.47;;;;;;;;;;5133599;28;19922;-80
2022/01/06 05:30:02;;;;;;;26.55;2.85;;;;;;;;;;5115073;28;20118;-80
2022/01/06 05:32:28;;;;;;;22.27;2.67;;;;;;;;;;5133463;28;20472;-80
2022/01/06 05:34:54;;;;;;;18.52;2.28;;;;;;;;;;5133217;28;20039;-81
2022/01/06 05:37:21;;;;;;;17.88;2.40;;;;;;;;;;5133505;28;20034;-80
2022/01/06 05:39:47;;;;;;;22.90;2.63;;;;;;;;;;5133542;28;20131;-80
2022/01/06 05:42:13;;;;;;;18.42;2.42;;;;;;;;;;5133284;28;20421;-80
2022/01/06 05:44:42;;;;;;;22.70;2.90;;;;;;;;;;5133241;28;20392;-80
2022/01/06 05:47:09;;;;;;;26.48;3.45;;;;;;;;;;5115406;28;20058;-80
2022/01/06 05:49:35;;;;;;;36.75;3.40;;;;;;;;;;5133109;28;20039;-80
2022/01/06 05:52:01;;;;;;;16.58;2.63;;;;;;;;;;5133268;28;20118;-80
2022/01/06 05:54:27;;;;;;;20.08;2.70;;;;;;;;;;5133242;28;20506;-80
2022/01/06 05:56:53;;;;;;;18.40;2.45;;;;;;;;;;5097912;28;20122;-80
2022/01/06 05:59:19;;;;;;;27.98;3.20;;;;;;;;;;5115146;28;20043;-81
2022/01/06 06:01:46;;;;;;;22.40;3.30;;;;;;;;;;5133032;28;20050;-81
2022/01/06 06:04:12;;;;;;;23.42;3.08;;;;;;;;;;5114703;28;20122;-80
2022/01/06 06:06:38;;;;;;;24.88;3.17;;;;;;;;;;5077768;28;20051;-80
2022/01/06 06:09:06;;;;;;;25.55;3.10;;;;;;;;;;5111606;28;20043;-80
2022/01/06 06:11:32;;;;;;;26.30;2.50;;;;;;;;;;5112650;28;20047;-80
2022/01/06 06:13:58;;;;;;;25.08;2.60;;;;;;;;;;5111610;28;20122;-80
2022/01/06 06:16:24;;;;;;;20.70;2.75;;;;;;;;;;5112469;28;20050;-81
2022/01/06 06:18:51;;;;;;;13.82;2.20;;;;;;;;;;5111199;28;20389;-81
2022/01/06 06:21:17;;;;;;;17.33;2.63;;;;;;;;;;5112670;28;20039;-80
2022/01/06 06:23:43;;;;;;;21.80;3.00;;;;;;;;;;5111636;28;20120;-80
2022/01/06 06:26:09;;;;;;;23.25;2.80;;;;;;;;;;5112577;28;20039;-80
2022/01/06 06:28:35;;;;;;;19.40;2.63;;;;;;;;;;5112297;28;20065;-80
2022/01/06 06:31:02;;;;;;;27.50;3.30;;;;;;;;;;5112241;28;20050;-80
2022/01/06 06:33:28;;;;;;;21.38;3.05;;;;;;;;;;5112697;28;20460;-81
2022/01/06 06:35:55;;;;;;;20.42;3.28;;;;;;;;;;5112199;28;20085;-81
2022/01/06 06:38:21;;;;;;;20.17;2.65;;;;;;;;;;5116140;28;20100;-80
2022/01/06 06:40:47;;;;;;;21.75;3.20;;;;;;;;;;5116107;28;20086;-79
2022/01/06 06:43:13;;;;;;;16.80;2.60;;;;;;;;;;5114883;28;20130;-81
2022/01/06 06:45:39;;;;;;;17.75;3.25;;;;;;;;;;5114808;28;20511;-80
2022/01/06 06:48:06;;;;;;;17.80;2.90;;;;;;;;;;5115523;28;20039;-81
2022/01/06 06:50:32;;;;;;;23.48;3.00;;;;;;;;;;5114636;28;20046;-80
2022/01/06 06:52:58;;;;;;;22.60;2.40;;;;;;;;;;5115697;28;20467;-81
2022/01/06 06:55:24;;;;;;;19.35;2.97;;;;;;;;;;5097592;28;20039;-80
2022/01/06 06:57:50;;;;;;;19.52;3.05;;;;;;;;;;5115671;28;20477;-81
2022/01/06 07:00:16;;;;;;;16.38;2.40;;;;;;;;;;5115443;28;20461;-81
2022/01/06 07:02:43;;;;;;;19.73;3.10;;;;;;;;;;5115687;28;20079;-79
2022/01/06 07:05:10;;;;;;;23.27;2.70;;;;;;;;;;5115698;27;20123;-81
2022/01/06 07:07:36;;;;;;;20.13;2.50;;;;;;;;;;5113935;28;20469;-80
2022/01/06 07:10:03;;;;;;;15.50;2.40;;;;;;;;;;5115431;28;20487;-80
2022/01/06 07:12:30;;;;;;;19.90;2.85;;;;;;;;;;5115425;28;20047;-80
2022/01/06 07:14:57;;;;;;;24.80;2.95;;;;;;;;;;5114058;28;20036;-81
2022/01/06 07:17:23;;;;;;;17.38;2.42;;;;;;;;;;5115254;28;20054;-80
2022/01/06 07:19:49;;;;;;;17.88;3.08;;;;;;;;;;5114084;28;20051;-80
2022/01/06 07:22:16;;;;;;;20.00;2.95;;;;;;;;;;5115252;28;20130;-80
2022/01/06 07:24:42;;;;;;;24.33;3.22;;;;;;;;;;5115027;28;20122;-79
2022/01/06 07:27:08;;;;;;;20.65;2.65;;;;;;;;;;5114807;28;20447;-79
2022/01/06 07:29:34;;;;;;;23.00;2.65;;;;;;;;;;5112318;28;20042;-81
2022/01/06 07:32:00;;;;;;;20.95;2.40;;;;;;;;;;5108467;27;20070;-81
2022/01/06 07:34:26;;;;;;;20.33;2.40;;;;;;;;;;5134957;27;20047;-82
2022/01/06 07:36:52;;;;;;;29.10;2.97;;;;;;;;;;5123249;27;20115;-81
2022/01/06 07:39:18;;;;;;;17.70;2.25;;;;;;;;;;5096427;28;20051;-79
2022/01/06 07:41:44;;;;;;;18.67;3.42;;;;;;;;;;5112774;28;20051;-78
2022/01/06 07:44:11;;;;;;;17.30;3.92;;;;;;;;;;5113143;28;20122;-80
2022/01/06 07:46:42;;;;;;;28.63;6.65;;;;;;;;;;5114638;28;20126;-80
2022/01/06 07:49:08;;;;;;;27.42;7.63;;;;;;;;;;5125443;27;20039;-80
2022/01/06 07:51:34;;;;;;;18.42;4.00;;;;;;;;;;5134879;27;20049;-80
2022/01/06 07:54:00;;;;;;;20.65;3.40;;;;;;;;;;5116871;27;20069;-79
2022/01/06 07:56:27;;;;;;;24.65;3.42;;;;;;;;;;5134833;27;20038;-80
2022/01/06 07:58:53;;;;;;;20.20;3.88;;;;;;;;;;5134172;27;20484;-80
2022/01/06 08:01:19;;;;;;;18.33;4.15;;;;;;;;;;5133586;27;20039;-80
2022/01/06 08:03:46;;;;;;;22.15;5.10;;;;;;;;;;5134906;27;20065;-80
2022/01/06 08:06:14;;;;;;;23.95;5.00;;;;;;;;;;5134405;27;20476;-79
2022/01/06 08:08:40;;;;;;;25.42;5.80;;;;;;;;;;5155079;27;20130;-81
2022/01/06 08:11:07;;;;;;;25.60;6.93;;;;;;;;;;5155457;27;20045;-78
2022/01/06 08:13:33;;;;;;;28.35;7.10;;;;;;;;;;5155500;27;20125;-80
2022/01/06 08:15:59;;;;;;;25.27;5.97;;;;;;;;;;5137174;27;20045;-79
2022/01/06 08:18:25;;;;;;;22.48;5.30;;;;;;;;;;5155231;27;20174;-82
2022/01/06 08:20:51;;;;;;;21.98;4.57;;;;;;;;;;5122011;27;20046;-81
2022/01/06 08:23:17;;;;;;;18.92;4.32;;;;;;;;;;5098926;27;20043;-80
2022/01/06 08:25:44;;;;;;;20.20;4.40;;;;;;;;;;5134206;27;20114;-80
2022/01/06 08:28:10;;;;;;;21.85;4.30;;;;;;;;;;5115690;27;20482;-81
2022/01/06 08:30:36;;;;;;;21.00;4.63;;;;;;;;;;5134439;27;20132;-80
2022/01/06 08:33:03;;;;;;;22.67;4.10;;;;;;;;;;5115828;27;20387;-81
2022/01/06 08:35:29;;;;;;;26.27;4.45;;;;;;;;;;5115727;27;20114;-81
2022/01/06 08:37:55;;;;;;;24.02;3.90;;;;;;;;;;5115954;27;20142;-81
2022/01/06 08:40:21;;;;;;;18.25;4.78;;;;;;;;;;5133798;27;20052;-81
2022/01/06 08:42:48;;;;;;;19.70;4.70;;;;;;;;;;5098901;27;20444;-81
2022/01/06 08:45:16;;;;;;;24.45;4.28;;;;;;;;;;5133621;27;20072;-81
2022/01/06 08:47:43;;;;;;;29.48;5.07;;;;;;;;;;5134025;27;20054;-80
2022/01/06 08:50:10;;;;;;;19.02;4.22;;;;;;;;;;5133781;27;20055;-81
2022/01/06 08:52:37;;;;;;;27.10;9.05;;;;;;;;;;5115301;27;20119;-81
2022/01/06 08:55:04;;;;;;;19.13;7.28;;;;;;;;;;5133671;27;20410;-81
2022/01/06 08:57:30;;;;;;;33.58;12.70;;;;;;;;;;5133982;27;20039;-82
2022/01/06 08:59:56;;;;;;;28.83;9.20;;;;;;;;;;5115041;27;20086;-81
2022/01/06 09:02:22;;;;;;;34.13;11.43;;;;;;;;;;5133742;27;20137;-81
2022/01/06 09:04:48;;;;;;;33.10;11.00;;;;;;;;;;5115808;27;20050;-81
2022/01/06 09:07:14;;;;;;;42.60;13.35;;;;;;;;;;5133472;27;20440;-80
2022/01/06 09:09:40;;;;;;;37.33;13.48;;;;;;;;;;5133869;27;20057;-81
2022/01/06 09:12:07;;;;;;;31.00;11.63;;;;;;;;;;5115257;27;20472;-80
2022/01/06 09:14:33;;;;;;;36.75;13.93;;;;;;;;;;5133437;27;20366;-80
2022/01/06 09:17:00;;;;;;;30.88;12.32;;;;;;;;;;5115070;28;20121;-80
2022/01/06 09:19:27;;;;;;;33.40;12.13;;;;;;;;;;5133653;27;20075;-81
2022/01/06 09:21:53;;;;;;;29.73;9.73;;;;;;;;;;5133579;27;20047;-81
2022/01/06 09:24:19;;;;;;;21.60;7.97;;;;;;;;;;5133160;27;20430;-80
2022/01/06 09:26:45;;;;;;;24.60;6.18;;;;;;;;;;5133320;28;20050;-81
2022/01/06 09:29:15;;;;;;;29.70;8.05;;;;;;;;;;5098259;28;20039;-83
2022/01/06 09:31:42;;;;;;;34.80;9.30;;;;;;;;;;5133433;28;20039;-82
2022/01/06 09:34:08;;;;;;;30.77;8.65;;;;;;;;;;5115012;28;20418;-81
2022/01/06 09:36:35;;;;;;;32.25;8.88;;;;;;;;;;5132927;28;20039;-87
2022/01/06 09:39:02;;;;;;;26.67;6.65;;;;;;;;;;5115183;28;20444;-83
2022/01/06 09:41:30;;;;;;;24.70;5.43;;;;;;;;;;5133504;28;20078;-81
2022/01/06 09:43:57;;;;;;;22.73;4.43;;;;;;;;;;5115278;28;20039;-81
2022/01/06 09:46:24;;;;;;;28.95;5.22;;;;;;;;;;5115196;28;20039;-81
2022/01/06 09:48:50;;;;;;;21.02;6.32;;;;;;;;;;5115230;28;20035;-81
2022/01/06 09:51:17;;;;;;;28.90;6.18;;;;;;;;;;5114733;28;20039;-81
2022/01/06 09:53:44;;;;;;;23.35;5.45;;;;;;;;;;5133435;28;20043;-81
2022/01/06 09:56:10;;;;;;;28.20;5.72;;;;;;;;;;5115078;28;20047;-81
2022/01/06 09:58:36;;;;;;;24.73;5.22;;;;;;;;;;5133118;28;20118;-81
2022/01/06 10:01:03;;;;;;;25.83;4.60;;;;;;;;;;5133042;28;20122;-82
2022/01/06 10:03:36;;;;;;;26.33;5.97;;;;;;;;;;5133097;28;20047;-82
2022/01/06 10:06:09;;;;;;;32.55;7.45;;;;;;;;;;5133293;28;20039;-82
2022/01/06 10:08:35;;;;;;;31.17;8.35;;;;;;;;;;5114353;28;20043;-82
2022/01/06 10:11:12;;;;;;;26.58;7.90;;;;;;;;;;5134242;27;20042;-83
2022/01/06 10:13:40;;;;;;;23.80;5.82;;;;;;;;;;5118920;27;20054;-82
2022/01/06 10:16:16;;;;;;;25.70;4.45;;;;;;;;;;5136979;27;20047;-82
2022/01/06 10:18:58;;;;;;;28.35;4.30;;;;;;;;;;5101431;27;20480;-80
2022/01/06 10:21:24;;;;;;;;;;;;;;;;;;5137285;27;20066;-82
2022/01/06 10:24:00;;;;;;;23.65;3.35;;;;;;;;;;5137078;27;19915;-82
2022/01/06 10:26:26;;;;;;;17.88;3.38;;;;;;;;;;5136999;27;20043;-84
2022/01/06 10:28:53;;;;;;;24.75;4.13;;;;;;;;;;5136922;27;20034;-83
2022/01/06 10:31:23;;;;;;;25.17;4.43;;;;;;;;;;5136053;27;20134;-82
2022/01/06 10:33:49;;;;;;;19.25;3.42;;;;;;;;;;5118228;27;20046;-81
2022/01/06 10:36:15;;;;;;;22.83;3.58;;;;;;;;;;5118445;27;20046;-81
2022/01/06 10:38:41;;;;;;;22.23;3.10;;;;;;;;;;5101398;27;20050;-82
2022/01/06 10:41:15;;;;;;;25.05;3.65;;;;;;;;;;5117981;27;20047;-82
2022/01/06 10:43:41;;;;;;;20.85;3.03;;;;;;;;;;5118435;27;20078;-82
2022/01/06 10:46:08;;;;;;;19.73;3.38;;;;;;;;;;5136612;27;20050;-83
2022/01/06 10:48:34;;;;;;;19.48;3.85;;;;;;;;;;5118343;27;20043;-83
2022/01/06 10:51:01;;;;;;;22.52;3.30;;;;;;;;;;5118246;27;20046;-82
2022/01/06 10:53:28;;;;;;;25.38;4.40;;;;;;;;;;5136366;27;20058;-81
2022/01/06 10:55:54;;;;;;;24.58;3.80;;;;;;;;;;5135993;27;20047;-82
2022/01/06 10:58:21;;;;;;;16.50;3.53;;;;;;;;;;5117937;27;20043;-83
2022/01/06 11:00:49;;;;;;;23.23;4.25;;;;;;;;;;5135877;27;20043;-83
2022/01/06 11:03:17;;;;;;;22.88;3.80;;;;;;;;;;5118257;27;20043;-82
2022/01/06 11:05:45;;;;;;;24.48;5.07;;;;;;;;;;5117542;27;20127;-82
2022/01/06 11:08:12;;;;;;;25.55;5.43;;;;;;;;;;5117592;27;20053;-81
2022/01/06 11:10:46;;;;;;;26.05;5.03;;;;;;;;;;5117647;27;20063;-81
2022/01/06 11:13:14;;;;;;;21.10;4.90;;;;;;;;;;5118199;27;20043;-80
2022/01/06 11:15:40;;;;;;;23.58;4.72;;;;;;;;;;5117507;27;20047;-79
2022/01/06 11:18:06;;;;;;;25.30;5.18;;;;;;;;;;5135757;27;20042;-80
2022/01/06 11:20:33;;;;;;;26.90;5.18;;;;;;;;;;5135710;27;20497;-76
2022/01/06 11:22:59;;;;;;;23.02;4.70;;;;;;;;;;5134498;27;20047;-77
2022/01/06 11:25:34;;;;;;;25.40;5.18;;;;;;;;;;5100480;27;20473;-82
2022/01/06 11:28:05;;;;;;;36.42;6.50;;;;;;;;;;5100574;27;20488;-82
2022/01/06 11:30:45;;;;;;;31.13;5.10;;;;;;;;;;5135500;27;20118;-82
2022/01/06 11:33:11;;;;;;;19.80;4.50;;;;;;;;;;5117257;27;20491;-82
2022/01/06 11:35:52;;;;;;;25.55;4.38;;;;;;;;;;5117188;27;20050;-82
2022/01/06 11:38:19;;;;;;;25.10;4.50;;;;;;;;;;5117252;27;20476;-82
2022/01/06 11:40:47;;;;;;;22.75;3.50;;;;;;;;;;5135331;27;20555;-82
2022/01/06 11:43:13;;;;;;;22.83;4.40;;;;;;;;;;5117084;27;20476;-82
2022/01/06 11:45:39;;;;;;;22.20;4.20;;;;;;;;;;5116859;27;20451;-82
2022/01/06 11:48:07;;;;;;;31.02;5.18;;;;;;;;;;5135456;27;20086;-81
2022/01/06 11:50:37;;;;;;;27.92;4.07;;;;;;;;;;5135254;27;20146;-81
2022/01/06 11:53:04;;;;;;;21.77;4.45;;;;;;;;;;5135242;27;20039;-82
2022/01/06 11:55:35;;;;;;;24.10;5.03;;;;;;;;;;5134874;27;20399;-82
2022/01/06 11:58:12;;;;;;;29.67;5.65;;;;;;;;;;5134864;27;20047;-81
2022/01/06 12:00:42;;;;;;;34.90;5.38;;;;;;;;;;5116798;27;20039;-82
2022/01/06 12:03:10;;;;;;;28.35;5.70;;;;;;;;;;5116940;27;20406;-82
2022/01/06 12:05:49;;;;;;;27.17;7.10;;;;;;;;;;5116882;27;20078;-77
2022/01/06 12:08:19;;;;;;;29.73;8.98;;;;;;;;;;5134524;27;20051;-81
2022/01/06 12:10:46;;;;;;;28.08;6.13;;;;;;;;;;5134707;27;20047;-81
2022/01/06 12:13:12;;;;;;;25.38;5.75;;;;;;;;;;5116260;27;20429;-80
2022/01/06 12:15:51;;;;;;;26.85;5.40;;;;;;;;;;5116518;27;20053;-80
2022/01/06 12:18:36;;;;;;;23.92;4.97;;;;;;;;;;5116699;27;20088;-81
2022/01/06 12:21:02;;;;;;;20.98;4.32;;;;;;;;;;5134356;27;20519;-81
2022/01/06 12:23:28;;;;;;;24.70;4.38;;;;;;;;;;5116539;27;20035;-81
2022/01/06 12:25:59;;;;;;;19.08;4.50;;;;;;;;;;5134246;27;20043;-82
2022/01/06 12:28:26;;;;;;;26.38;8.45;;;;;;;;;;5134628;27;20495;-81
2022/01/06 12:30:57;;;;;;;24.67;5.15;;;;;;;;;;5115787;27;20122;-82
2022/01/06 12:33:23;;;;;;;18.48;4.07;;;;;;;;;;5134192;27;20038;-81
2022/01/06 12:35:50;;;;;;;23.27;3.53;;;;;;;;;;5134038;27;20124;-82
2022/01/06 12:38:22;;;;;;;17.88;3.78;;;;;;;;;;5115906;27;20054;-82
2022/01/06 12:40:49;;;;;;;27.05;5.20;;;;;;;;;;5099757;27;20072;-82
2022/01/06 12:43:22;;;;;;;26.52;4.93;;;;;;;;;;5099050;27;20149;-81
2022/01/06 12:46:01;;;;;;;22.35;5.57;;;;;;;;;;5099011;27;20126;-82
2022/01/06 12:48:31;;;;;;;27.02;5.50;;;;;;;;;;5115686;27;20055;-82
2022/01/06 12:50:57;;;;;;;25.25;5.80;;;;;;;;;;5134166;27;20039;-81
2022/01/06 12:53:25;;;;;;;33.88;7.80;;;;;;;;;;5133912;27;20045;-81
2022/01/06 12:55:51;;;;;;;25.80;6.53;;;;;;;;;;5133818;27;20039;-83
2022/01/06 12:58:24;;;;;;;26.50;6.70;;;;;;;;;;5115745;27;20130;-81
2022/01/06 13:00:54;;;;;;;25.80;4.75;;;;;;;;;;5133661;27;20085;-81
2022/01/06 13:03:40;;;;;;;30.13;4.60;;;;;;;;;;5133892;27;20055;-81
2022/01/06 13:06:10;;;;;;;23.42;4.22;;;;;;;;;;5133553;27;20450;-81
2022/01/06 13:08:44;;;;;;;27.50;3.90;;;;;;;;;;5133625;27;20051;-82
2022/01/06 13:11:10;;;;;;;21.70;3.40;;;;;;;;;;5115188;28;20480;-81
2022/01/06 13:13:49;;;;;;;22.58;4.10;;;;;;;;;;5115521;27;20043;-83
2022/01/06 13:16:16;;;;;;;22.50;3.58;;;;;;;;;;5133936;27;20042;-83
2022/01/06 13:18:57;;;;;;;26.15;3.88;;;;;;;;;;5133611;27;20035;-82
2022/01/06 13:21:33;;;;;;;23.13;3.92;;;;;;;;;;5115208;27;20050;-80
2022/01/06 13:24:21;;;;;;;27.13;3.60;;;;;;;;;;5133436;27;20047;-81
2022/01/06 13:26:52;;;;;;;22.10;3.90;;;;;;;;;;5115117;28;20078;-82
2022/01/06 13:29:27;;;;;;;22.65;6.68;;;;;;;;;;5115266;28;20050;-82
2022/01/06 13:31:57;;;;;;;23.50;9.82;;;;;;;;;;5133280;28;20087;-82
2022/01/06 13:34:24;;;;;;;22.55;4.70;;;;;;;;;;5133603;28;20070;-82
2022/01/06 13:37:00;;;;;;;19.70;3.63;;;;;;;;;;5133253;28;20084;-83
2022/01/06 13:39:32;;;;;;;21.50;3.97;;;;;;;;;;5114753;28;20425;-82
2022/01/06 13:41:59;;;;;;;22.63;3.42;;;;;;;;;;5133314;28;20039;-82
2022/01/06 13:44:25;;;;;;;21.63;3.20;;;;;;;;;;5115065;28;20039;-82
2022/01/06 13:47:11;;;;;;;19.88;3.45;;;;;;;;;;5117807;27;20112;-83
2022/01/06 13:52:24;;;;;;;22.83;4.60;;;;;;;;;;5119001;27;20396;-82
2022/01/06 13:54:50;;;;;;;19.52;3.70;;;;;;;;;;5119130;27;20134;-81
2022/01/06 13:57:16;;;;;;;19.45;3.47;;;;;;;;;;5137483;27;20047;-82
2022/01/06 13:59:43;;;;;;;22.95;3.60;;;;;;;;;;5137621;27;20047;-81
2022/01/06 14:02:10;;;;;;;24.92;3.90;;;;;;;;;;5118757;27;20120;-82
2022/01/06 14:04:37;;;;;;;22.52;4.47;;;;;;;;;;5119070;27;20061;-82
2022/01/06 14:07:03;;;;;;;22.77;4.10;;;;;;;;;;5136876;27;20103;-82
2022/01/06 14:09:29;;;;;;;21.90;4.15;;;;;;;;;;5136922;27;20054;-82
2022/01/06 14:11:57;;;;;;;23.35;4.85;;;;;;;;;;5118887;27;20039;-81
2022/01/06 14:14:24;;;;;;;20.60;4.50;;;;;;;;;;5137254;27;20079;-82
2022/01/06 14:16:50;;;;;;;26.35;3.92;;;;;;;;;;5118701;27;20074;-82
2022/01/06 14:19:17;;;;;;;21.55;4.07;;;;;;;;;;5137182;27;20130;-81
2022/01/06 14:21:43;;;;;;;26.58;3.65;;;;;;;;;;5136962;27;20058;-81
2022/01/06 14:24:10;;;;;;;23.20;4.30;;;;;;;;;;5136830;27;20079;-81
2022/01/06 14:26:36;;;;;;;19.15;4.18;;;;;;;;;;5118768;27;20035;-81
2022/01/06 14:29:02;;;;;;;21.38;4.60;;;;;;;;;;5136855;27;20043;-81
2022/01/06 14:31:28;;;;;;;25.73;4.80;;;;;;;;;;5136738;27;20035;-82
2022/01/06 14:33:55;;;;;;;21.80;4.93;;;;;;;;;;5101659;27;20120;-81
2022/01/06 14:36:21;;;;;;;18.10;3.70;;;;;;;;;;5136758;27;20043;-82
2022/01/06 14:38:48;;;;;;;26.40;4.30;;;;;;;;;;5136477;27;20046;-82
2022/01/06 14:41:15;;;;;;;29.52;5.18;;;;;;;;;;5136508;27;20050;-81
2022/01/06 14:43:42;;;;;;;29.73;4.25;;;;;;;;;;5101201;27;20050;-81